Time;durP1;ratioP1;P1;durP2;ratioP2;P2;SDS_P1;SDS_P2;PMS_P1;PMS_P2;Temp;Humidity;BMP_temperature;BMP_pressure;BME280_temperature;BME280_humidity;BME280_pressure;Samples;Min_cycle;Max_cycle;Signal;HPM_P1;HPM_P2
2021/12/19 00:01:58;;;;;;;40.00;21.20;;;6.50;99.90;;;;;;6217104;23;20167;-84
2021/12/19 00:04:30;;;;;;;41.57;21.53;;;6.50;99.90;;;;;;6216312;23;20619;-83
2021/12/19 00:09:42;;;;;;;41.17;20.97;;;6.60;99.90;;;;;;6216681;23;20182;-80
2021/12/19 00:12:09;;;;;;;40.67;20.67;;;6.40;99.90;;;;;;6216468;23;20194;-80
2021/12/19 00:14:36;;;;;;;56.13;24.70;;;6.40;99.90;;;;;;6216097;23;20619;-79
2021/12/19 00:17:04;;;;;;;47.73;23.57;;;6.40;99.90;;;;;;6217194;23;20166;-80
2021/12/19 00:19:32;;;;;;;52.77;23.80;;;6.30;99.90;;;;;;6216933;23;20167;-83
2021/12/19 00:22:00;;;;;;;51.20;24.67;;;6.40;99.90;;;;;;6216782;23;20178;-80
2021/12/19 00:24:27;;;;;;;51.03;23.50;;;6.40;99.90;;;;;;6216954;23;20611;-81
2021/12/19 00:26:56;;;;;;;47.83;22.50;;;6.50;99.90;;;;;;6216627;23;20242;-81
2021/12/19 00:29:23;;;;;;;43.50;21.17;;;6.40;99.90;;;;;;6215562;23;20191;-82
2021/12/19 00:31:51;;;;;;;44.83;22.70;;;6.60;99.90;;;;;;6215117;23;20191;-82
2021/12/19 00:34:17;;;;;;;45.20;21.57;;;6.70;99.90;;;;;;6214928;23;20174;-80
2021/12/19 00:36:44;;;;;;;37.43;19.40;;;6.70;99.90;;;;;;6215017;23;20171;-84
2021/12/19 00:39:13;;;;;;;37.53;19.27;;;6.60;99.90;;;;;;6214885;23;20162;-82
2021/12/19 00:41:40;;;;;;;32.60;18.50;;;6.60;99.90;;;;;;6215100;23;20610;-81
2021/12/19 00:44:09;;;;;;;32.20;18.30;;;6.80;99.90;;;;;;6214665;23;20163;-84
2021/12/19 00:46:43;;;;;;;35.60;18.87;;;6.60;99.90;;;;;;6214660;23;20202;-81
2021/12/19 00:49:11;;;;;;;33.23;18.10;;;6.60;99.90;;;;;;6214920;23;20194;-80
2021/12/19 00:51:39;;;;;;;35.30;19.67;;;6.50;99.90;;;;;;6215043;23;20534;-84
2021/12/19 00:54:09;;;;;;;35.00;19.63;;;6.60;99.90;;;;;;6214542;23;20163;-79
2021/12/19 00:56:38;;;;;;;31.53;18.37;;;6.60;99.90;;;;;;6215418;23;20232;-81
2021/12/19 00:59:07;;;;;;;31.80;18.67;;;6.70;99.90;;;;;;6214778;23;20611;-81
2021/12/19 01:01:34;;;;;;;35.27;19.10;;;6.80;99.90;;;;;;6214888;23;20638;-81
2021/12/19 01:04:03;;;;;;;33.73;19.37;;;6.90;99.90;;;;;;6215124;23;20175;-82
2021/12/19 01:06:30;;;;;;;35.67;18.83;;;6.80;99.90;;;;;;6214750;23;20163;-78
2021/12/19 01:08:57;;;;;;;36.53;19.60;;;6.80;99.90;;;;;;6214970;23;20191;-83
2021/12/19 01:11:30;;;;;;;36.63;18.63;;;6.80;99.90;;;;;;6215216;23;20179;-86
2021/12/19 01:13:58;;;;;;;36.60;20.03;;;6.50;99.90;;;;;;6214430;23;20191;-81
2021/12/19 01:16:25;;;;;;;42.60;20.67;;;6.70;99.90;;;;;;6214607;23;20494;-81
2021/12/19 01:18:52;;;;;;;37.27;19.47;;;6.80;99.90;;;;;;6214915;23;20162;-81
2021/12/19 01:21:22;;;;;;;42.30;21.80;;;6.90;99.90;;;;;;6215110;23;20167;-83
2021/12/19 01:23:49;;;;;;;43.50;22.27;;;6.60;99.90;;;;;;6215100;23;20170;-82
2021/12/19 01:26:17;;;;;;;50.03;23.27;;;6.60;99.90;;;;;;6213733;23;20163;-82
2021/12/19 01:31:30;;;;;;;42.90;21.20;;;6.70;99.90;;;;;;5151956;27;20546;-84
2021/12/19 01:33:57;;;;;;;45.43;22.17;;;7.00;99.90;;;;;;5152071;27;20206;-81
2021/12/19 01:36:23;;;;;;;44.23;21.10;;;7.10;99.90;;;;;;5151708;27;20214;-82
2021/12/19 01:38:51;;;;;;;39.70;20.27;;;7.30;99.90;;;;;;5151838;27;20203;-80
2021/12/19 01:41:18;;;;;;;39.17;19.47;;;7.10;99.90;;;;;;5151838;27;20667;-82
2021/12/19 01:43:45;;;;;;;36.60;19.10;;;7.10;99.90;;;;;;5152198;27;20219;-82
2021/12/19 01:46:12;;;;;;;33.40;17.37;;;6.90;99.90;;;;;;5151441;27;20210;-84
2021/12/19 01:48:41;;;;;;;34.43;18.07;;;7.10;99.90;;;;;;5151430;27;20222;-83
2021/12/19 01:51:08;;;;;;;34.97;17.90;;;7.10;99.90;;;;;;5131159;28;20211;-79
2021/12/19 01:53:35;;;;;;;32.00;16.30;;;6.90;99.90;;;;;;5130703;27;20200;-79
2021/12/19 01:56:05;;;;;;;33.30;16.13;;;7.10;99.90;;;;;;5130844;27;20225;-82
2021/12/19 01:58:32;;;;;;;26.63;14.60;;;7.10;99.90;;;;;;5130674;27;20279;-81
2021/12/19 02:01:00;;;;;;;27.27;14.93;;;7.10;99.90;;;;;;5131143;28;20200;-80
2021/12/19 02:03:27;;;;;;;27.03;14.60;;;7.10;99.90;;;;;;5130519;27;20200;-82
2021/12/19 02:05:58;;;;;;;27.60;13.63;;;7.20;99.90;;;;;;5130841;28;20198;-81
2021/12/19 02:08:25;;;;;;;27.67;14.37;;;6.90;99.90;;;;;;5130697;28;20215;-82
2021/12/19 02:10:52;;;;;;;29.37;15.47;;;7.10;99.90;;;;;;5130116;27;20224;-80
2021/12/19 02:13:18;;;;;;;32.80;16.73;;;7.00;99.90;;;;;;5130200;28;20184;-80
2021/12/19 02:15:48;;;;;;;31.77;15.73;;;6.70;99.90;;;;;;5130513;28;20208;-80
2021/12/19 02:18:17;;;;;;;33.07;16.07;;;6.80;99.90;;;;;;5130280;28;20287;-80
2021/12/19 02:20:50;;;;;;;31.80;15.50;;;6.90;99.90;;;;;;5130229;28;20263;-81
2021/12/19 02:23:18;;;;;;;35.63;16.93;;;6.90;99.90;;;;;;5130152;27;20207;-80
2021/12/19 02:25:46;;;;;;;31.83;15.33;;;7.00;99.90;;;;;;5129520;27;20668;-81
2021/12/19 02:28:13;;;;;;;28.60;15.23;;;7.00;99.90;;;;;;5129661;28;20662;-79
2021/12/19 02:30:40;;;;;;;33.73;16.70;;;6.90;99.90;;;;;;5129405;27;20693;-82
2021/12/19 02:33:11;;;;;;;33.90;15.93;;;6.90;99.90;;;;;;5129364;27;20556;-82
2021/12/19 02:35:40;;;;;;;31.93;16.37;;;7.00;99.90;;;;;;5129952;28;20283;-81
2021/12/19 02:39:06;;;;;;;28.70;15.77;;;7.20;99.90;;;;;;5130012;28;20192;-79
2021/12/19 02:49:33;;;;;;;33.07;16.73;;;7.30;99.90;;;;;;5115701;28;20341;-85
2021/12/19 02:52:11;;;;;;;34.87;16.90;;;7.20;99.90;;;;;;5115725;28;20212;-83
2021/12/19 02:54:39;;;;;;;32.37;16.87;;;7.30;99.90;;;;;;5115431;28;20208;-81
2021/12/19 02:57:07;;;;;;;37.20;17.10;;;7.30;99.90;;;;;;5115719;28;20228;-81
2021/12/19 02:59:34;;;;;;;34.83;16.33;;;7.10;99.90;;;;;;5115401;28;20197;-80
2021/12/19 03:02:03;;;;;;;31.53;15.47;;;6.80;99.90;;;;;;5115779;28;20200;-81
2021/12/19 03:04:36;;;;;;;31.73;15.33;;;6.70;99.90;;;;;;5115262;28;20207;-84
2021/12/19 03:07:04;;;;;;;34.57;16.60;;;6.70;99.90;;;;;;5115454;28;20381;-81
2021/12/19 03:09:53;;;;;;;32.17;15.97;;;6.80;99.90;;;;;;5114959;28;20205;-83
2021/12/19 03:12:32;;;;;;;34.97;15.90;;;7.00;99.90;;;;;;5115507;28;20265;-83
2021/12/19 03:18:00;;;;;;;36.43;16.37;;;6.90;99.90;;;;;;5105305;28;20215;-80
2021/12/19 03:20:28;;;;;;;33.87;16.43;;;6.90;99.90;;;;;;5113864;28;20300;-79
2021/12/19 03:22:55;;;;;;;56.72;23.60;;;7.00;99.90;;;;;;5112553;28;20432;-80
2021/12/19 03:25:23;;;;;;;43.97;19.63;;;7.30;99.90;;;;;;5114119;28;20204;-83
2021/12/19 03:27:51;;;;;;;40.10;18.30;;;7.50;99.90;;;;;;5115236;27;20220;-79
2021/12/19 03:30:19;;;;;;;41.00;17.87;;;7.50;99.90;;;;;;5114780;28;20236;-80
2021/12/19 03:32:48;;;;;;;43.37;17.50;;;7.40;99.90;;;;;;5114607;28;20192;-81
2021/12/19 03:35:15;;;;;;;43.07;17.13;;;7.40;99.90;;;;;;5114940;28;20211;-84
2021/12/19 03:37:43;;;;;;;40.33;17.53;;;7.30;99.90;;;;;;5114470;28;20191;-83
2021/12/19 03:40:13;;;;;;;45.93;18.73;;;7.10;99.90;;;;;;5114583;28;20240;-82
2021/12/19 03:42:43;;;;;;;61.87;19.30;;;7.10;99.90;;;;;;5115016;28;20205;-80
2021/12/19 03:45:14;;;;;;;58.30;18.03;;;7.20;99.90;;;;;;5114812;28;20678;-81
2021/12/19 03:47:43;;;;;;;51.43;18.10;;;7.10;99.90;;;;;;5115030;28;20205;-80
2021/12/19 03:50:14;;;;;;;54.53;18.80;;;7.20;99.90;;;;;;5114330;28;20235;-80
2021/12/19 03:52:40;;;;;;;53.07;19.03;;;7.20;99.90;;;;;;5113868;28;20193;-82
2021/12/19 03:55:08;;;;;;;43.53;18.10;;;7.10;99.90;;;;;;5114211;28;20208;-80
2021/12/19 03:57:35;;;;;;;71.55;27.30;;;7.10;99.90;;;;;;5113611;28;20421;-80
2021/12/19 04:00:02;;;;;;;66.57;21.63;;;7.30;99.90;;;;;;5114082;28;20586;-82
2021/12/19 04:02:30;;;;;;;58.77;21.13;;;7.40;99.90;;;;;;5114739;28;20205;-80
2021/12/19 04:05:00;;;;;;;57.53;20.20;;;7.20;99.90;;;;;;5114301;28;20192;-83
2021/12/19 04:07:28;;;;;;;59.90;20.13;;;7.30;99.90;;;;;;5113985;28;20534;-81
2021/12/19 04:09:55;;;;;;;56.23;20.00;;;7.40;99.90;;;;;;5114034;28;20664;-81
2021/12/19 04:12:24;;;;;;;58.13;20.63;;;7.20;99.90;;;;;;5114562;28;20196;-84
2021/12/19 04:14:51;;;;;;;63.23;20.20;;;7.10;99.90;;;;;;5114700;28;20200;-80
2021/12/19 04:17:21;;;;;;;60.50;20.43;;;7.10;99.90;;;;;;5114191;28;20208;-81
2021/12/19 04:19:50;;;;;;;65.13;21.13;;;7.00;99.90;;;;;;5114078;28;20299;-82
2021/12/19 04:22:17;;;;;;;62.33;20.90;;;6.80;99.90;;;;;;5113807;28;20689;-85
2021/12/19 04:24:44;;;;;;;66.27;20.90;;;6.90;99.90;;;;;;5114339;28;20189;-81
2021/12/19 04:27:11;;;;;;;75.27;22.27;;;6.90;99.90;;;;;;5114322;28;20204;-79
2021/12/19 04:29:38;;;;;;;73.33;22.27;;;6.90;99.90;;;;;;5114099;28;20694;-80
2021/12/19 04:32:07;;;;;;;72.40;21.77;;;7.00;99.90;;;;;;5113675;28;20663;-82
2021/12/19 04:34:36;;;;;;;72.83;21.53;;;7.00;99.90;;;;;;5114797;28;20193;-84
2021/12/19 04:37:17;;;;;;;64.63;19.67;;;7.00;99.90;;;;;;5113481;28;20708;-82
2021/12/19 04:39:55;;;;;;;72.73;22.03;;;7.10;99.90;;;;;;5114357;28;20196;-81
2021/12/19 04:51:08;;;;;;;92.73;23.10;;;6.80;99.90;;;;;;5114396;28;20269;-84
2021/12/19 04:53:51;;;;;;;87.87;24.30;;;6.80;99.90;;;;;;5115072;28;20310;-81
2021/12/19 04:56:35;;;;;;;95.57;24.37;;;6.80;99.90;;;;;;5114489;28;20208;-85
2021/12/19 05:15:49;;;;;;;70.97;20.37;;;6.70;99.90;;;;;;5113557;28;20195;-84
2021/12/19 05:18:16;;;;;;;65.73;21.27;;;6.70;99.90;;;;;;5113374;28;20640;-82
2021/12/19 05:20:52;;;;;;;65.67;20.30;;;6.70;99.90;;;;;;5113913;28;20568;-82
2021/12/19 05:23:27;;;;;;;66.03;22.00;;;6.70;99.90;;;;;;5113838;28;20686;-79
2021/12/19 05:25:56;;;;;;;59.63;20.60;;;6.50;99.90;;;;;;5113433;28;20206;-82
2021/12/19 05:28:23;;;;;;;69.10;21.30;;;6.40;99.90;;;;;;5113681;28;20593;-80
2021/12/19 05:30:51;;;;;;;71.93;22.23;;;6.40;99.90;;;;;;5113308;28;20220;-85
2021/12/19 05:33:19;;;;;;;76.63;22.73;;;6.40;99.90;;;;;;5113765;28;20200;-85
2021/12/19 05:36:05;;;;;;;76.43;24.67;;;6.60;99.90;;;;;;5114183;28;20192;-83
2021/12/19 05:45:11;;;;;;;77.30;20.63;;;6.40;99.90;;;;;;5113502;28;20361;-84
2021/12/19 05:46:59;;;;;;;77.07;22.50;;;6.50;99.90;;;;;;5113173;27;20296;-81
2021/12/19 05:49:29;;;;;;;83.13;22.77;;;6.50;99.90;;;;;;5112490;28;20220;-79
2021/12/19 05:51:58;;;;;;;84.17;22.77;;;6.50;99.90;;;;;;5113180;28;20231;-80
2021/12/19 05:54:26;;;;;;;78.13;22.33;;;6.50;99.90;;;;;;5112920;28;20624;-83
2021/12/19 05:56:54;;;;;;;84.90;22.87;;;6.50;99.90;;;;;;5112717;28;20205;-80
2021/12/19 05:59:21;;;;;;;82.20;21.60;;;6.70;99.90;;;;;;5113031;28;20289;-80
2021/12/19 06:01:48;;;;;;;100.37;23.90;;;6.80;99.90;;;;;;5101010;28;20202;-82
2021/12/19 06:04:14;;;;;;;96.60;23.67;;;6.80;99.90;;;;;;5091664;28;20212;-80
2021/12/19 06:06:41;;;;;;;94.03;24.90;;;6.80;99.90;;;;;;5090630;28;20242;-81
2021/12/19 06:09:08;;;;;;;100.63;23.37;;;6.70;99.90;;;;;;5092432;28;20194;-82
2021/12/19 06:11:35;;;;;;;107.97;23.13;;;6.70;99.90;;;;;;5091663;28;20242;-80
2021/12/19 06:14:04;;;;;;;99.90;22.63;;;6.70;99.90;;;;;;5092393;28;20205;-82
2021/12/19 06:16:31;;;;;;;102.33;22.73;;;6.70;99.90;;;;;;5093494;28;20374;-82
2021/12/19 06:18:57;;;;;;;114.27;24.47;;;6.70;99.90;;;;;;5096325;28;20208;-81
2021/12/19 06:21:24;;;;;;;102.37;24.93;;;6.60;99.90;;;;;;5096474;28;20227;-79
2021/12/19 06:23:51;;;;;;;112.20;24.20;;;6.60;99.90;;;;;;5096016;28;20205;-82
2021/12/19 06:26:18;;;;;;;105.17;25.00;;;6.60;99.90;;;;;;5096106;28;20216;-81
2021/12/19 06:28:45;;;;;;;110.47;25.47;;;6.50;99.90;;;;;;5096437;28;20190;-81
2021/12/19 06:31:13;;;;;;;117.13;25.37;;;6.60;99.90;;;;;;5095786;28;20439;-81
2021/12/19 06:33:40;;;;;;;126.13;25.97;;;6.70;99.90;;;;;;5096152;28;20220;-80
2021/12/19 06:36:09;;;;;;;111.37;23.70;;;6.50;99.90;;;;;;5096172;28;20208;-80
2021/12/19 06:38:36;;;;;;;135.13;24.80;;;6.70;99.90;;;;;;5096758;28;20205;-82
2021/12/19 06:41:02;;;;;;;112.97;24.33;;;6.80;99.90;;;;;;5096451;28;20201;-82
2021/12/19 06:43:30;;;;;;;76.37;20.40;;;6.80;99.90;;;;;;5096464;28;20201;-79
2021/12/19 06:45:59;;;;;;;84.17;22.33;;;6.50;99.90;;;;;;5096753;28;20289;-80
2021/12/19 06:48:27;;;;;;;78.00;20.90;;;6.30;99.90;;;;;;5096040;28;20196;-80
2021/12/19 06:50:54;;;;;;;79.80;20.77;;;6.20;99.90;;;;;;5096142;28;20258;-80
2021/12/19 06:53:21;;;;;;;78.65;23.83;;;6.30;99.90;;;;;;5095165;28;20437;-82
2021/12/19 06:55:49;;;;;;;62.97;19.73;;;6.30;99.90;;;;;;5095845;28;20290;-83
2021/12/19 06:58:16;;;;;;;47.00;15.80;;;6.20;99.90;;;;;;5096182;28;20288;-79
2021/12/19 07:00:43;;;;;;;50.43;16.50;;;6.10;99.90;;;;;;5096127;28;20201;-81
2021/12/19 07:03:11;;;;;;;59.13;17.03;;;6.20;99.90;;;;;;5096377;28;20205;-79
2021/12/19 07:05:40;;;;;;;67.00;16.40;;;6.40;99.90;;;;;;5096165;28;20197;-80
2021/12/19 07:08:07;;;;;;;53.77;14.50;;;6.50;99.90;;;;;;5095561;28;20193;-80
2021/12/19 07:10:35;;;;;;;50.40;15.37;;;6.50;99.90;;;;;;5095622;28;20212;-81
2021/12/19 07:13:01;;;;;;;60.43;17.37;;;6.50;99.90;;;;;;5095476;28;20196;-82
2021/12/19 07:15:30;;;;;;;55.00;17.17;;;6.50;99.90;;;;;;5095106;28;20671;-80
2021/12/19 07:18:02;;;;;;;61.00;18.17;;;6.20;99.90;;;;;;5095512;28;20644;-82
2021/12/19 07:20:29;;;;;;;63.17;18.30;;;6.10;99.90;;;;;;5095857;28;20331;-80
2021/12/19 07:22:58;;;;;;;58.53;16.93;;;6.30;99.90;;;;;;5094863;28;20205;-81
2021/12/19 07:25:25;;;;;;;60.67;17.87;;;6.40;99.90;;;;;;5095287;28;20208;-79
2021/12/19 07:27:52;;;;;;;61.00;18.13;;;6.30;99.90;;;;;;5095421;28;20205;-80
2021/12/19 07:30:19;;;;;;;75.15;22.83;;;6.40;99.90;;;;;;5093934;28;20523;-80
2021/12/19 07:32:46;;;;;;;55.97;18.20;;;6.50;99.90;;;;;;5095158;28;20587;-83
2021/12/19 07:35:14;;;;;;;51.63;16.50;;;6.30;99.90;;;;;;5095480;28;20198;-80
2021/12/19 07:37:41;;;;;;;42.50;15.00;;;6.20;99.90;;;;;;5094893;28;20205;-81
2021/12/19 07:40:14;;;;;;;55.33;17.23;;;6.10;99.90;;;;;;5094630;28;20219;-80
2021/12/19 07:42:42;;;;;;;46.60;16.20;;;6.20;99.90;;;;;;5094503;28;20201;-81
2021/12/19 07:45:10;;;;;;;47.23;15.10;;;6.40;99.90;;;;;;5094207;28;20200;-80
2021/12/19 07:47:38;;;;;;;51.67;16.70;;;6.50;99.90;;;;;;5094349;28;20212;-80
2021/12/19 07:50:06;;;;;;;47.80;15.67;;;6.50;99.90;;;;;;5094294;28;20217;-80
2021/12/19 07:52:33;;;;;;;43.57;15.63;;;6.50;99.90;;;;;;5094238;28;20229;-81
2021/12/19 07:55:01;;;;;;;56.77;15.97;;;6.50;99.90;;;;;;5094430;28;20209;-83
2021/12/19 07:57:29;;;;;;;50.27;15.50;;;6.50;99.90;;;;;;5094432;28;20208;-81
2021/12/19 07:59:56;;;;;;;53.67;16.33;;;6.40;99.90;;;;;;5093642;28;20205;-80
2021/12/19 08:02:22;;;;;;;55.03;15.33;;;6.30;99.90;;;;;;5094184;28;20215;-81
2021/12/19 08:04:49;;;;;;;51.97;14.97;;;6.40;99.90;;;;;;5094623;28;20185;-82
2021/12/19 08:07:17;;;;;;;57.17;15.83;;;6.50;99.90;;;;;;5094113;28;20671;-80
2021/12/19 08:09:59;;;;;;;53.63;15.63;;;6.70;99.90;;;;;;5095355;28;20205;-80
2021/12/19 08:12:25;;;;;;;54.30;15.30;;;6.80;99.90;;;;;;5109838;28;20208;-83
2021/12/19 08:14:54;;;;;;;57.77;16.23;;;6.80;99.90;;;;;;5113112;28;20200;-84
2021/12/19 08:17:22;;;;;;;64.03;16.97;;;6.90;99.90;;;;;;5114111;28;20208;-83
2021/12/19 08:19:49;;;;;;;49.30;14.80;;;6.90;99.90;;;;;;5113794;28;20209;-81
2021/12/19 08:22:16;;;;;;;51.57;15.97;;;6.90;99.90;;;;;;5113845;27;20200;-83
2021/12/19 08:24:45;;;;;;;63.57;17.20;;;6.90;99.90;;;;;;5113795;28;20212;-84
2021/12/19 08:27:13;;;;;;;56.87;17.20;;;7.00;99.90;;;;;;5112787;28;20204;-81
2021/12/19 08:29:39;;;;;;;57.43;18.37;;;6.70;99.90;;;;;;5113118;28;20262;-80
2021/12/19 08:32:09;;;;;;;52.03;17.43;;;6.70;99.90;;;;;;5112478;28;20226;-85
2021/12/19 08:34:36;;;;;;;72.53;18.37;;;6.60;99.90;;;;;;5113614;28;20565;-80
2021/12/19 08:37:04;;;;;;;61.30;16.63;;;6.60;99.90;;;;;;5109404;28;20196;-82
2021/12/19 08:39:33;;;;;;;65.00;18.03;;;6.60;99.90;;;;;;5112755;28;20221;-85
2021/12/19 08:42:01;;;;;;;64.60;18.55;;;6.80;99.90;;;;;;5114063;28;20424;-82
2021/12/19 08:44:28;;;;;;;75.13;19.03;;;6.70;99.90;;;;;;5114293;28;20211;-83
2021/12/19 08:46:55;;;;;;;63.07;17.83;;;6.80;99.90;;;;;;5114366;28;20199;-81
2021/12/19 08:49:23;;;;;;;60.67;19.00;;;6.70;99.90;;;;;;5114177;28;20224;-80
2021/12/19 08:51:51;;;;;;;67.93;19.13;;;6.80;99.90;;;;;;5114227;28;20220;-85
2021/12/19 08:54:19;;;;;;;65.87;18.37;;;6.90;99.90;;;;;;5113781;28;20582;-82
2021/12/19 08:56:47;;;;;;;66.27;18.53;;;7.10;99.90;;;;;;5114098;28;20216;-88
2021/12/19 08:59:13;;;;;;;70.17;19.33;;;7.00;99.90;;;;;;5113957;28;20204;-87
2021/12/19 09:01:41;;;;;;;66.37;19.90;;;6.90;99.90;;;;;;5113717;28;20538;-81
2021/12/19 09:04:09;;;;;;;67.13;19.40;;;6.70;99.90;;;;;;5113281;28;20202;-80
2021/12/19 09:06:37;;;;;;;66.03;19.00;;;6.80;99.90;;;;;;5113283;28;20212;-82
2021/12/19 09:09:07;;;;;;;67.27;19.20;;;6.90;99.90;;;;;;5113600;28;20564;-82
2021/12/19 09:11:34;;;;;;;68.83;18.97;;;7.00;99.90;;;;;;5112812;28;20204;-83
2021/12/19 09:14:03;;;;;;;72.87;19.70;;;6.90;99.90;;;;;;5113128;28;20205;-81
2021/12/19 09:16:31;;;;;;;64.20;19.03;;;7.10;99.90;;;;;;5113017;28;20185;-83
2021/12/19 09:19:01;;;;;;;65.80;22.38;;;7.10;99.90;;;;;;5112944;28;20428;-81
2021/12/19 09:21:29;;;;;;;46.90;17.40;;;7.20;99.90;;;;;;5113118;28;20655;-80
2021/12/19 09:23:57;;;;;;;46.03;15.83;;;7.20;99.90;;;;;;5113088;28;20200;-81
2021/12/19 09:26:30;;;;;;;43.93;15.23;;;7.20;99.90;;;;;;5111704;28;20225;-84
2021/12/19 09:28:57;;;;;;;42.83;15.90;;;7.20;99.90;;;;;;5113900;28;20297;-83
2021/12/19 09:31:24;;;;;;;43.83;16.63;;;7.20;99.90;;;;;;5112973;28;20204;-84
2021/12/19 09:33:51;;;;;;;49.53;16.60;;;7.00;99.90;;;;;;5113525;28;20203;-85
2021/12/19 09:36:18;;;;;;;50.87;16.77;;;6.80;99.90;;;;;;5113444;28;20215;-85
2021/12/19 09:38:48;;;;;;;47.97;15.90;;;6.90;99.90;;;;;;5113605;28;20200;-82
2021/12/19 09:41:27;;;;;;;38.47;15.60;;;6.90;99.90;;;;;;5112950;28;20661;-83
2021/12/19 09:43:56;;;;;;;45.83;15.60;;;7.00;99.90;;;;;;5113340;28;20206;-84
2021/12/19 09:46:28;;;;;;;48.87;17.03;;;6.90;99.90;;;;;;5112960;28;20220;-84
2021/12/19 09:48:55;;;;;;;44.67;16.53;;;7.20;99.90;;;;;;5113477;28;20204;-85
2021/12/19 09:51:22;;;;;;;42.97;15.13;;;7.10;99.90;;;;;;5114081;28;20662;-83
2021/12/19 09:53:50;;;;;;;43.63;15.87;;;7.30;99.90;;;;;;5117528;28;20561;-84
2021/12/19 09:56:17;;;;;;;45.67;19.13;;;7.30;99.90;;;;;;5116687;28;20432;-82
2021/12/19 09:58:49;;;;;;;42.17;15.40;;;7.30;99.90;;;;;;5117590;28;20200;-86
2021/12/19 10:01:17;;;;;;;46.37;16.10;;;7.20;99.90;;;;;;5118483;28;20631;-86
2021/12/19 10:03:50;;;;;;;49.13;16.23;;;7.30;99.90;;;;;;5117446;28;20554;-87
2021/12/19 10:06:20;;;;;;;40.77;15.00;;;7.20;99.90;;;;;;5117938;28;20628;-84
2021/12/19 10:08:53;;;;;;;38.50;15.93;;;7.20;99.90;;;;;;5117185;28;20189;-85
2021/12/19 10:11:34;;;;;;;33.93;13.60;;;7.20;99.90;;;;;;5121402;28;20212;-86
2021/12/19 10:14:26;;;;;;;36.43;15.53;;;7.40;99.90;;;;;;5129935;28;20201;-89
2021/12/19 10:16:53;;;;;;;34.73;14.20;;;7.40;99.90;;;;;;5126426;28;20616;-83
2021/12/19 10:19:20;;;;;;;36.00;13.83;;;7.60;99.90;;;;;;5117653;28;20208;-82
2021/12/19 10:21:47;;;;;;;42.03;15.20;;;7.50;99.90;;;;;;5117821;28;20205;-81
2021/12/19 10:24:29;;;;;;;40.40;15.50;;;7.60;99.90;;;;;;5117214;28;20205;-90
2021/12/19 10:26:58;;;;;;;33.87;15.33;;;7.40;99.90;;;;;;5118059;27;20211;-84
2021/12/19 10:29:45;;;;;;;32.70;13.40;;;7.50;99.90;;;;;;5099486;28;20300;-84
2021/12/19 10:32:12;;;;;;;28.27;13.33;;;7.40;99.90;;;;;;5117285;28;20228;-87
2021/12/19 10:34:39;;;;;;;34.83;18.30;;;7.40;99.90;;;;;;5116038;28;20435;-86
2021/12/19 10:37:06;;;;;;;29.57;16.23;;;7.40;99.90;;;;;;5117209;28;20205;-84
2021/12/19 10:39:39;;;;;;;30.50;15.30;;;7.30;99.90;;;;;;5116551;28;20200;-86
2021/12/19 10:42:06;;;;;;;36.43;16.47;;;7.30;99.90;;;;;;5116883;28;20670;-87
2021/12/19 10:47:25;;;;;;;34.43;16.10;;;7.20;99.90;;;;;;5117017;28;20230;-86
2021/12/19 10:49:52;;;;;;;35.03;16.70;;;7.30;99.90;;;;;;5116692;28;20224;-84
2021/12/19 10:52:34;;;;;;;35.27;17.27;;;7.40;99.90;;;;;;5116380;28;20691;-86
2021/12/19 10:55:05;;;;;;;38.00;19.50;;;7.50;99.90;;;;;;5116559;28;20420;-86
2021/12/19 10:57:37;;;;;;;39.03;16.97;;;7.50;99.90;;;;;;5116709;28;20219;-88
2021/12/19 11:00:10;;;;;;;27.70;13.27;;;7.50;99.90;;;;;;5116561;28;20211;-87
2021/12/19 11:02:44;;;;;;;29.80;15.03;;;7.50;99.90;;;;;;5116586;28;20185;-85
2021/12/19 11:05:34;;;;;;;34.07;15.33;;;7.60;99.90;;;;;;5116546;28;20184;-84
2021/12/19 11:08:02;;;;;;;32.73;15.33;;;7.50;99.90;;;;;;5116400;28;20200;-87
2021/12/19 11:10:33;;;;;;;31.50;16.10;;;7.60;99.90;;;;;;5116819;28;20195;-87
2021/12/19 11:13:10;;;;;;;27.90;13.60;;;7.50;99.90;;;;;;5116885;28;20671;-84
2021/12/19 11:15:37;;;;;;;30.75;17.83;;;7.40;99.90;;;;;;5115154;28;20546;-87
2021/12/19 11:18:09;;;;;;;29.93;15.00;;;7.50;99.90;;;;;;5115778;28;20196;-87
2021/12/19 11:20:36;;;;;;;27.93;15.53;;;7.50;99.90;;;;;;5115341;28;20185;-79
2021/12/19 11:23:03;;;;;;;26.17;15.43;;;7.50;99.90;;;;;;5115195;28;20215;-82
2021/12/19 11:25:30;;;;;;;27.50;15.23;;;7.40;99.90;;;;;;5115445;28;20184;-88
2021/12/19 11:27:58;;;;;;;27.83;14.57;;;7.50;99.90;;;;;;5115543;28;20211;-86
2021/12/19 11:30:26;;;;;;;28.00;14.70;;;7.50;99.90;;;;;;5115638;28;20215;-85
2021/12/19 11:33:13;;;;;;;26.57;13.93;;;7.50;99.90;;;;;;5114936;28;20208;-84
2021/12/19 11:35:46;;;;;;;20.87;13.53;;;7.60;99.90;;;;;;5112681;28;20640;-84
2021/12/19 11:38:18;;;;;;;23.37;14.30;;;7.70;99.90;;;;;;5115683;28;20209;-86
2021/12/19 11:40:46;;;;;;;26.07;13.93;;;7.70;99.90;;;;;;5113272;28;20196;-85
2021/12/19 11:43:14;;;;;;;24.87;14.07;;;7.60;99.90;;;;;;5115443;28;20535;-85
2021/12/19 11:45:46;;;;;;;24.30;13.70;;;7.40;99.90;;;;;;5112942;28;20196;-87
2021/12/19 11:48:18;;;;;;;23.93;14.33;;;7.50;99.90;;;;;;5115642;28;20282;-82
2021/12/19 11:50:53;;;;;;;25.50;14.23;;;7.50;99.90;;;;;;5113289;28;20316;-84
2021/12/19 11:53:26;;;;;;;22.10;13.13;;;7.60;99.90;;;;;;5113112;28;20564;-82
2021/12/19 11:55:54;;;;;;;23.73;13.80;;;7.50;99.90;;;;;;5115065;28;20538;-82
2021/12/19 11:58:30;;;;;;;22.93;13.47;;;7.50;99.90;;;;;;5109936;28;20230;-80
2021/12/19 12:01:12;;;;;;;25.03;14.07;;;7.70;99.90;;;;;;5115114;28;20192;-82
2021/12/19 12:03:47;;;;;;;22.80;13.50;;;7.70;99.90;;;;;;5097185;28;20201;-85
2021/12/19 12:06:39;;;;;;;20.83;13.27;;;7.70;99.90;;;;;;5094666;28;20193;-85
2021/12/19 12:09:23;;;;;;;22.33;13.30;;;7.70;99.90;;;;;;5094573;28;20207;-83
2021/12/19 12:12:33;;;;;;;19.73;12.40;;;7.70;99.90;;;;;;5095135;28;20200;-84
2021/12/19 12:15:07;;;;;;;19.27;12.17;;;7.70;99.90;;;;;;5108523;28;20204;-85
2021/12/19 12:17:46;;;;;;;19.67;13.13;;;7.60;99.90;;;;;;5115740;28;20195;-84
2021/12/19 12:20:20;;;;;;;20.93;14.07;;;7.60;99.90;;;;;;5115298;28;20208;-81
2021/12/19 12:23:08;;;;;;;23.75;14.80;;;7.70;99.90;;;;;;5114636;28;20517;-84
2021/12/19 12:25:41;;;;;;;22.50;15.20;;;7.70;99.90;;;;;;5113106;28;20283;-82
2021/12/19 12:28:15;;;;;;;22.23;14.77;;;7.60;99.90;;;;;;5115459;28;20197;-85
2021/12/19 12:30:45;;;;;;;23.67;15.00;;;7.70;99.90;;;;;;5114810;28;20290;-82
2021/12/19 12:33:14;;;;;;;23.90;13.33;;;7.60;99.90;;;;;;5102584;28;20316;-83
2021/12/19 12:35:44;;;;;;;22.70;13.77;;;7.60;99.90;;;;;;5095171;28;20201;-86
2021/12/19 12:38:13;;;;;;;22.33;13.70;;;7.60;99.90;;;;;;5094618;28;20194;-84
2021/12/19 12:40:50;;;;;;;20.37;13.97;;;7.60;99.90;;;;;;5109183;28;20287;-85
2021/12/19 12:43:18;;;;;;;19.47;12.77;;;7.60;99.90;;;;;;5115255;28;20712;-84
2021/12/19 12:46:00;;;;;;;16.83;11.67;;;7.60;99.90;;;;;;5114839;28;20228;-85
2021/12/19 12:48:44;;;;;;;15.57;12.02;;;7.60;99.90;;;;;;5114187;28;20948;-87
2021/12/19 12:51:19;;;;;;;13.17;10.00;;;7.60;99.90;;;;;;5112113;28;20582;-87
2021/12/19 12:53:50;;;;;;;13.30;8.73;;;7.50;99.90;;;;;;5114687;28;20223;-86
2021/12/19 12:56:23;;;;;;;11.63;8.57;;;7.70;99.90;;;;;;5115091;28;20196;-85
2021/12/19 12:58:54;;;;;;;8.50;6.80;;;7.90;99.90;;;;;;5115059;28;20228;-86
2021/12/19 13:01:29;;;;;;;6.97;5.93;;;7.80;99.90;;;;;;5115297;28;20261;-86
2021/12/19 13:04:02;;;;;;;7.63;5.83;;;7.70;99.90;;;;;;5114651;28;20188;-86
2021/12/19 13:06:53;;;;;;;4.33;3.93;;;7.70;99.90;;;;;;5114611;28;20193;-86
2021/12/19 13:09:24;;;;;;;4.73;4.33;;;7.80;99.90;;;;;;5114239;28;20207;-87
2021/12/19 13:12:00;;;;;;;5.03;4.17;;;7.80;99.90;;;;;;5114659;28;20196;-88
2021/12/19 13:14:30;;;;;;;7.17;3.87;;;7.80;99.90;;;;;;5114085;28;20204;-86
2021/12/19 13:17:06;;;;;;;4.33;3.73;;;7.80;99.90;;;;;;5114017;28;20188;-87
2021/12/19 13:19:45;;;;;;;2.83;2.60;;;7.80;99.90;;;;;;5117612;28;20200;-86
2021/12/19 13:22:15;;;;;;;2.50;2.40;;;7.80;99.90;;;;;;5118081;28;20239;-87
2021/12/19 13:24:53;;;;;;;3.03;2.00;;;7.80;99.90;;;;;;5117923;27;20200;-86
2021/12/19 13:27:24;;;;;;;2.40;2.20;;;7.90;99.90;;;;;;5116883;28;20204;-86
2021/12/19 13:30:08;;;;;;;2.40;2.20;;;7.90;99.90;;;;;;5114879;28;20689;-86
2021/12/19 13:32:40;;;;;;;2.10;2.00;;;7.90;99.90;;;;;;5112130;28;20651;-84
2021/12/19 13:35:23;;;;;;;2.20;2.10;;;7.90;99.90;;;;;;5114312;28;20216;-84
2021/12/19 13:37:54;;;;;;;2.60;1.80;;;7.90;99.90;;;;;;5113855;28;20643;-86
2021/12/19 13:40:23;;;;;;;2.93;2.17;;;8.10;99.90;;;;;;5113536;28;20643;-86
2021/12/19 13:42:54;;;;;;;2.90;2.20;;;8.30;99.90;;;;;;5113671;28;20214;-87
2021/12/19 13:45:31;;;;;;;4.27;2.57;;;8.20;99.90;;;;;;5113603;28;20290;-85